Sugar Land Regional Airport Houston US
ICAO: KSGR
IATA: SGR
Category: Medium
Scheduled Services: No

Elevation: 82 ft
TransAlt. 18000 ft.

Airport Communications:
HOUSTON APP/DEP:123.8
ASOS:118.125
CTAF:118.65
GND/CLNC DEL:121.4
TWR:118.65
UNICOM:122.95

KSGR Zoom In..

Runways:

(A) RW 17 length 8000 ft width 100 ft
---- / hdg 170

(B) RW 35 length 8000 ft width 100 ft
ILS 110.70 / hdg 350

Location; KSGR
Day. 23 / Time. 14.53 Zulu
* Altimeter: 30.28
* Temperature: 10° c. 50°f.
* Wind from: 350° Speed 06 kn.
Dewpoint: -01° c.
Visibility: 10 Statute Miles.
Clouds: Clear (automated report).

KSGR 231453Z 35006KT 10SM CLR 10/M01 A3028 RMK AO2 SLP256 T01001011 53019


Wind From 350°
Speed 06 kn.

YouTube Music Video
 
jpsmedia.com for Web Design  worldairports.se 2018   terms of use